createdAt,value
2022-11-23T00:01:18.680Z,13.13
2022-11-23T00:03:46.748Z,11.47
2022-11-23T00:06:13.479Z,11.30
2022-11-23T00:08:39.903Z,11.73
2022-11-23T00:11:06.660Z,13.30
2022-11-23T00:13:35.120Z,10.27
2022-11-23T00:16:08.408Z,13.00
2022-11-23T00:18:35.141Z,16.80
2022-11-23T00:21:06.652Z,11.30
2022-11-23T00:23:33.112Z,13.37
2022-11-23T00:25:59.527Z,13.53
2022-11-23T00:28:26.010Z,14.73
2022-11-23T00:30:52.417Z,13.17
2022-11-23T00:33:18.845Z,14.73
2022-11-23T00:35:45.395Z,12.63
2022-11-23T00:38:12.093Z,13.83
2022-11-23T00:40:38.562Z,14.03
2022-11-23T00:43:05.061Z,14.53
2022-11-23T00:45:31.574Z,14.47
2022-11-23T00:47:58.023Z,14.57
2022-11-23T00:50:24.439Z,11.93
2022-11-23T00:52:50.843Z,13.20
2022-11-23T00:55:17.374Z,11.37
2022-11-23T00:57:43.783Z,12.47
2022-11-23T01:00:12.483Z,11.03
2022-11-23T01:02:38.933Z,12.03
2022-11-23T01:05:05.582Z,12.67
2022-11-23T01:07:32.143Z,12.50
2022-11-23T01:09:58.703Z,16.20
2022-11-23T01:12:25.231Z,13.80
2022-11-23T01:14:53.860Z,13.37
2022-11-23T01:17:20.331Z,14.30
2022-11-23T01:19:46.857Z,13.67
2022-11-23T01:22:13.300Z,13.43
2022-11-23T01:24:39.707Z,11.33
2022-11-23T01:27:06.242Z,14.10
2022-11-23T01:29:33.002Z,14.20
2022-11-23T01:31:59.698Z,12.77
2022-11-23T01:34:26.115Z,13.17
2022-11-23T01:36:52.535Z,9.77
2022-11-23T01:39:18.981Z,15.20
2022-11-23T01:41:45.800Z,11.50
2022-11-23T01:44:31.826Z,16.43
2022-11-23T01:47:00.919Z,10.90
2022-11-23T01:49:30.541Z,12.00
2022-11-23T01:51:59.966Z,12.33
2022-11-23T01:54:29.677Z,13.30
2022-11-23T01:57:00.372Z,10.97
2022-11-23T01:59:27.174Z,13.07
2022-11-23T02:01:53.667Z,13.47
2022-11-23T02:04:25.131Z,14.90
2022-11-23T02:06:52.558Z,12.23
2022-11-23T02:09:19.826Z,11.13
2022-11-23T02:11:46.241Z,13.93
2022-11-23T02:14:12.793Z,11.20
2022-11-23T02:16:39.355Z,13.10
2022-11-23T02:19:10.534Z,12.57
2022-11-23T02:21:36.936Z,11.17
2022-11-23T02:24:14.892Z,11.53
2022-11-23T02:26:41.648Z,10.37
2022-11-23T02:29:12.244Z,10.93
2022-11-23T02:31:38.648Z,10.10
2022-11-23T02:34:05.061Z,13.27
2022-11-23T02:36:36.534Z,13.97
2022-11-23T02:39:08.126Z,10.20
2022-11-23T02:41:36.598Z,10.80
2022-11-23T02:44:03.939Z,11.23
2022-11-23T02:46:30.499Z,11.20
2022-11-23T02:48:56.907Z,10.60
2022-11-23T02:51:23.315Z,9.70
2022-11-23T02:53:49.711Z,12.70
2022-11-23T02:56:16.112Z,9.20
2022-11-23T02:58:42.505Z,9.43
2022-11-23T03:01:08.964Z,9.40
2022-11-23T03:03:35.446Z,9.87
2022-11-23T03:06:01.875Z,9.70
2022-11-23T03:08:28.317Z,9.60
2022-11-23T03:10:54.730Z,9.70
2022-11-23T03:13:21.142Z,11.30
2022-11-23T03:15:48.048Z,9.77
2022-11-23T03:18:14.447Z,8.23
2022-11-23T03:20:40.856Z,9.87
2022-11-23T03:23:07.281Z,9.30
2022-11-23T03:25:33.697Z,9.30
2022-11-23T03:28:00.118Z,10.77
2022-11-23T03:30:26.533Z,9.93
2022-11-23T03:32:52.956Z,11.03
2022-11-23T03:35:19.370Z,13.23
2022-11-23T03:37:45.782Z,9.13
2022-11-23T03:40:12.566Z,13.13
2022-11-23T03:42:40.502Z,9.47
2022-11-23T03:45:08.068Z,12.67
2022-11-23T03:47:34.932Z,9.63
2022-11-23T03:50:01.353Z,9.43
2022-11-23T03:52:27.770Z,10.93
2022-11-23T03:54:54.170Z,11.10
2022-11-23T03:57:20.591Z,11.57
2022-11-23T03:59:46.991Z,12.97
2022-11-23T04:02:13.406Z,12.17
2022-11-23T04:04:39.927Z,10.87
2022-11-23T04:07:06.443Z,10.93
2022-11-23T04:09:33.230Z,9.40
2022-11-23T04:11:59.804Z,10.80
2022-11-23T04:14:26.253Z,11.00
2022-11-23T04:16:52.657Z,9.10
2022-11-23T04:19:19.052Z,9.47
2022-11-23T04:21:45.453Z,15.97
2022-11-23T04:24:12.040Z,11.60
2022-11-23T04:26:40.379Z,10.87
2022-11-23T04:29:06.771Z,10.40
2022-11-23T04:31:33.194Z,9.17
2022-11-23T04:33:59.700Z,10.33
2022-11-23T04:36:27.250Z,8.10
2022-11-23T04:38:53.801Z,9.90
2022-11-23T04:41:20.333Z,6.87
2022-11-23T04:43:51.807Z,9.77
2022-11-23T04:46:18.641Z,10.37
2022-11-23T04:48:45.106Z,9.10
2022-11-23T04:51:11.516Z,10.67
2022-11-23T04:53:37.916Z,9.67
2022-11-23T04:56:04.404Z,10.23
2022-11-23T04:58:34.590Z,10.70
2022-11-23T05:01:01.287Z,11.63
2022-11-23T05:03:27.802Z,14.30
2022-11-23T05:05:54.316Z,13.07
2022-11-23T05:08:20.726Z,10.57
2022-11-23T05:10:47.292Z,12.93
2022-11-23T05:13:13.713Z,12.73
2022-11-23T05:15:40.117Z,10.73
2022-11-23T05:18:07.419Z,11.23
2022-11-23T05:20:34.485Z,9.53
2022-11-23T05:23:02.254Z,9.60
2022-11-23T05:25:28.689Z,10.27
2022-11-23T05:27:55.147Z,8.13
2022-11-23T05:30:21.733Z,10.87
2022-11-23T05:32:48.175Z,14.93
2022-11-23T05:35:15.000Z,10.33
2022-11-23T05:37:41.827Z,9.17
2022-11-23T05:40:09.214Z,12.97
2022-11-23T05:42:35.713Z,11.90
2022-11-23T05:45:02.148Z,11.57
2022-11-23T05:47:28.581Z,10.93
2022-11-23T05:49:55.119Z,8.13
2022-11-23T05:52:21.511Z,12.00
2022-11-23T05:54:47.908Z,8.10
2022-11-23T05:57:15.781Z,13.23
2022-11-23T05:59:42.263Z,10.87
2022-11-23T06:02:08.729Z,10.33
2022-11-23T06:04:35.151Z,12.60
2022-11-23T06:07:01.630Z,9.60
2022-11-23T06:09:28.473Z,12.63
2022-11-23T06:11:55.161Z,12.87
2022-11-23T06:14:21.620Z,10.73
2022-11-23T06:16:48.068Z,12.87
2022-11-23T06:19:14.550Z,12.83
2022-11-23T06:21:41.724Z,11.27
2022-11-23T06:24:11.006Z,10.40
2022-11-23T06:26:37.449Z,9.63
2022-11-23T06:29:03.863Z,12.90
2022-11-23T06:31:30.320Z,11.17
2022-11-23T06:33:56.804Z,13.20
2022-11-23T06:36:23.223Z,10.97
2022-11-23T06:38:49.719Z,12.00
2022-11-23T06:41:16.130Z,12.33
2022-11-23T06:43:42.555Z,14.60
2022-11-23T06:46:09.106Z,13.87
2022-11-23T06:48:35.554Z,10.43
2022-11-23T06:51:02.003Z,10.87
2022-11-23T06:53:29.064Z,12.13
2022-11-23T06:55:59.998Z,10.77
2022-11-23T06:58:26.733Z,9.00
2022-11-23T07:00:53.185Z,10.67
2022-11-23T07:03:22.078Z,8.43
2022-11-23T07:05:48.700Z,10.27
2022-11-23T07:08:15.128Z,9.93
2022-11-23T07:10:41.870Z,8.70
2022-11-23T07:13:09.673Z,9.10
2022-11-23T07:15:37.019Z,13.27
2022-11-23T07:18:03.973Z,10.47
2022-11-23T07:20:30.573Z,11.80
2022-11-23T07:23:05.907Z,9.10
2022-11-23T07:25:34.042Z,9.67
2022-11-23T07:28:01.697Z,9.30
2022-11-23T07:30:29.822Z,9.77
2022-11-23T07:33:14.353Z,10.57
2022-11-23T07:35:41.394Z,9.17
2022-11-23T07:38:09.056Z,11.83
2022-11-23T07:40:39.446Z,11.87
2022-11-23T07:43:06.822Z,12.63
2022-11-23T07:45:33.917Z,10.97
2022-11-23T07:48:02.349Z,11.67
2022-11-23T07:50:29.001Z,9.00
2022-11-23T07:52:55.713Z,8.07
2022-11-23T07:55:23.013Z,8.30
2022-11-23T07:57:54.254Z,9.73
2022-11-23T08:00:24.998Z,8.27
2022-11-23T08:03:19.359Z,7.37
2022-11-23T08:05:37.816Z,7.43
2022-11-23T08:08:04.454Z,6.83
2022-11-23T08:10:31.719Z,10.20
2022-11-23T08:13:04.315Z,8.57
2022-11-23T08:15:31.020Z,8.57
2022-11-23T08:17:58.633Z,8.57
2022-11-23T08:20:25.934Z,8.40
2022-11-23T08:22:52.772Z,10.37
2022-11-23T08:25:19.160Z,6.97
2022-11-23T08:27:45.667Z,9.37
2022-11-23T08:30:12.431Z,6.90
2022-11-23T08:32:38.854Z,7.07
2022-11-23T08:35:06.099Z,7.37
2022-11-23T08:37:32.517Z,6.90
2022-11-23T08:39:58.920Z,6.87
2022-11-23T08:42:25.325Z,8.03
2022-11-23T08:44:51.728Z,7.57
2022-11-23T08:47:19.605Z,9.00
2022-11-23T08:49:46.005Z,10.20
2022-11-23T08:52:12.408Z,11.10
2022-11-23T08:54:38.835Z,8.77
2022-11-23T08:57:05.257Z,9.40
2022-11-23T08:59:31.680Z,8.60
2022-11-23T09:01:58.288Z,11.10
2022-11-23T09:04:27.507Z,6.33
2022-11-23T09:06:53.932Z,9.60
2022-11-23T09:09:20.410Z,10.10
2022-11-23T09:11:46.838Z,10.37
2022-11-23T09:14:13.238Z,7.60
2022-11-23T09:16:39.703Z,7.70
2022-11-23T09:19:08.090Z,8.30
2022-11-23T09:21:35.751Z,8.20
2022-11-23T09:24:02.289Z,10.90
2022-11-23T09:26:28.744Z,7.70
2022-11-23T09:28:55.128Z,11.87
2022-11-23T09:31:21.573Z,6.13
2022-11-23T09:33:48.020Z,9.80
2022-11-23T09:36:14.424Z,5.87
2022-11-23T09:38:57.522Z,8.30
2022-11-23T09:41:55.837Z,8.00
2022-11-23T09:44:44.006Z,14.93
2022-11-23T09:47:36.717Z,8.67
2022-11-23T09:50:06.124Z,7.07
2022-11-23T09:52:33.444Z,6.53
2022-11-23T09:55:22.271Z,8.50
2022-11-23T09:57:49.091Z,8.50
2022-11-23T10:00:23.099Z,7.23
2022-11-23T10:02:49.639Z,7.37
2022-11-23T10:05:20.150Z,7.90
2022-11-23T10:08:13.535Z,6.37
2022-11-23T10:11:21.281Z,7.50
2022-11-23T10:14:05.373Z,6.57
2022-11-23T10:16:53.291Z,5.83
2022-11-23T10:19:44.419Z,5.97
2022-11-23T10:22:19.163Z,5.33
2022-11-23T10:24:51.995Z,7.43
2022-11-23T10:27:20.947Z,6.07
2022-11-23T10:29:48.315Z,7.50
2022-11-23T10:32:38.098Z,8.03
2022-11-23T10:35:21.536Z,6.43
2022-11-23T10:37:47.967Z,6.97
2022-11-23T10:40:22.041Z,6.00
2022-11-23T10:43:02.889Z,5.00
2022-11-23T10:45:29.516Z,5.07
2022-11-23T10:47:59.967Z,10.53
2022-11-23T10:50:30.111Z,6.57
2022-11-23T10:53:02.344Z,6.20
2022-11-23T10:55:31.476Z,6.33
2022-11-23T10:57:58.530Z,5.67
2022-11-23T11:00:30.580Z,5.07
2022-11-23T11:02:58.516Z,5.70
2022-11-23T11:08:48.642Z,4.28
2022-11-23T11:11:45.855Z,6.60
2022-11-23T11:14:17.011Z,4.85
2022-11-23T11:16:48.046Z,7.32
2022-11-23T11:19:25.044Z,8.50
2022-11-23T11:21:51.582Z,5.65
2022-11-23T11:24:20.916Z,6.35
2022-11-23T11:26:49.607Z,8.02
2022-11-23T11:29:38.657Z,7.75
2022-11-23T11:32:10.703Z,6.00
2022-11-23T11:34:53.275Z,5.53
2022-11-23T11:37:42.515Z,6.82
2022-11-23T11:40:27.688Z,6.57
2022-11-23T11:42:57.939Z,6.35
2022-11-23T11:45:26.897Z,6.65
2022-11-23T11:47:57.843Z,8.32
2022-11-23T11:50:34.326Z,5.00
2022-11-23T11:53:08.299Z,7.35
2022-11-23T11:55:51.360Z,3.70
2022-11-23T11:58:18.295Z,6.88
2022-11-23T12:00:47.028Z,5.90
2022-11-23T12:03:34.539Z,5.28
2022-11-23T12:06:07.062Z,4.75
2022-11-23T12:08:40.845Z,2.72
2022-11-23T12:11:10.663Z,2.65
2022-11-23T12:13:39.075Z,4.28
2022-11-23T12:16:27.323Z,2.67
2022-11-23T12:19:19.402Z,3.67
2022-11-23T12:21:47.137Z,3.08
2022-11-23T12:24:34.057Z,2.85
2022-11-23T12:27:17.060Z,3.15
2022-11-23T12:30:14.089Z,3.33
2022-11-23T12:33:01.665Z,2.65
2022-11-23T12:35:48.089Z,3.03
2022-11-23T12:38:47.759Z,2.95
2022-11-23T12:41:42.193Z,4.18
2022-11-23T12:44:50.234Z,4.45
2022-11-23T12:47:41.777Z,3.13
2022-11-23T12:50:30.489Z,2.55
2022-11-23T12:53:17.079Z,3.03
2022-11-23T12:56:04.987Z,3.35
2022-11-23T12:58:33.322Z,4.25
2022-11-23T13:01:07.171Z,5.05
2022-11-23T13:03:50.590Z,4.00
2022-11-23T13:06:35.797Z,3.08
2022-11-23T13:09:17.356Z,5.55
2022-11-23T13:12:25.208Z,3.15
2022-11-23T13:14:56.209Z,4.22
2022-11-23T13:17:44.434Z,4.78
2022-11-23T13:20:23.045Z,3.08
2022-11-23T13:22:49.806Z,4.65
2022-11-23T13:25:25.460Z,2.40
2022-11-23T13:27:51.775Z,4.43
2022-11-23T13:30:24.448Z,2.75
2022-11-23T13:32:56.812Z,3.92
2022-11-23T13:35:23.183Z,3.20
2022-11-23T13:37:55.667Z,5.78
2022-11-23T13:40:23.512Z,4.93
2022-11-23T13:42:51.618Z,3.25
2022-11-23T13:45:24.701Z,3.13
2022-11-23T13:48:09.472Z,4.07
2022-11-23T13:50:41.069Z,4.07
2022-11-23T13:53:33.854Z,2.80
2022-11-23T13:56:24.305Z,6.80
2022-11-23T13:58:53.450Z,1.27
2022-11-23T14:02:08.267Z,4.68
2022-11-23T14:04:35.628Z,3.38
2022-11-23T14:07:07.034Z,2.72
2022-11-23T14:09:36.960Z,3.42
2022-11-23T14:12:12.415Z,3.00
2022-11-23T14:15:03.911Z,6.20
2022-11-23T14:17:55.807Z,2.95
2022-11-23T14:20:28.495Z,4.05
2022-11-23T14:23:36.099Z,4.10
2022-11-23T14:26:21.257Z,3.58
2022-11-23T14:29:05.847Z,2.35
2022-11-23T14:31:59.466Z,3.78
2022-11-23T14:34:35.201Z,3.13
2022-11-23T14:37:13.552Z,3.25
2022-11-23T14:39:55.638Z,2.85
2022-11-23T14:42:25.196Z,2.22
2022-11-23T14:44:52.388Z,2.85
2022-11-23T14:47:27.042Z,2.88
2022-11-23T14:49:53.549Z,4.97
2022-11-23T14:52:22.834Z,3.67
2022-11-23T14:54:50.961Z,4.65
2022-11-23T14:57:19.596Z,3.67
2022-11-23T15:00:10.156Z,6.22
2022-11-23T15:02:40.755Z,3.63
2022-11-23T15:05:08.179Z,3.97
2022-11-23T15:07:43.913Z,4.53
2022-11-23T15:10:19.403Z,4.47
2022-11-23T15:12:47.881Z,5.30
2022-11-23T15:15:26.178Z,3.65
2022-11-23T15:18:00.316Z,4.57
2022-11-23T15:20:33.365Z,4.82
2022-11-23T15:23:03.175Z,7.57
2022-11-23T15:25:30.013Z,6.03
2022-11-23T15:27:56.635Z,6.55
2022-11-23T15:30:32.165Z,7.67
2022-11-23T15:33:06.139Z,5.18
2022-11-23T15:35:37.968Z,8.05
2022-11-23T15:38:07.794Z,6.85
2022-11-23T15:40:38.155Z,5.03
2022-11-23T15:43:04.706Z,2.83
2022-11-23T15:45:38.474Z,5.40
2022-11-23T15:48:29.041Z,3.73
2022-11-23T15:50:57.879Z,3.20
2022-11-23T15:53:32.607Z,3.87
2022-11-23T15:56:04.929Z,2.60
2022-11-23T15:58:32.319Z,4.83
2022-11-23T16:01:11.371Z,7.07
2022-11-23T16:04:02.113Z,5.87
2022-11-23T16:06:35.301Z,5.07
2022-11-23T16:09:01.952Z,5.10
2022-11-23T16:11:30.083Z,4.57
2022-11-23T16:14:14.502Z,6.63
2022-11-23T16:16:45.720Z,4.73
2022-11-23T16:19:25.211Z,4.67
2022-11-23T16:22:00.576Z,7.43
2022-11-23T16:24:29.248Z,6.40
2022-11-23T16:26:55.667Z,5.97
2022-11-23T16:29:35.576Z,7.70
2022-11-23T16:32:03.060Z,4.90
2022-11-23T16:34:29.713Z,6.13
2022-11-23T16:36:56.372Z,7.67
2022-11-23T16:39:24.079Z,8.53
2022-11-23T16:41:51.359Z,7.60
2022-11-23T16:44:18.438Z,6.73
2022-11-23T16:46:46.811Z,8.10
2022-11-23T16:49:22.061Z,4.47
2022-11-23T16:51:56.966Z,4.37
2022-11-23T16:54:34.013Z,8.60
2022-11-23T16:57:00.609Z,5.97
2022-11-23T16:59:27.134Z,7.03
2022-11-23T17:01:57.241Z,8.23
2022-11-23T17:04:24.739Z,6.20
2022-11-23T17:06:51.231Z,8.83
2022-11-23T17:09:17.634Z,7.60
2022-11-23T17:11:46.547Z,9.53
2022-11-23T17:14:18.506Z,7.17
2022-11-23T17:16:45.584Z,8.87
2022-11-23T17:19:16.909Z,8.57
2022-11-23T17:21:43.658Z,8.47
2022-11-23T17:24:11.026Z,9.43
2022-11-23T17:26:39.233Z,9.57
2022-11-23T17:29:07.640Z,5.53
2022-11-23T17:31:34.369Z,5.87
2022-11-23T17:34:00.855Z,9.40
2022-11-23T17:36:27.564Z,10.50
2022-11-23T17:38:54.012Z,9.57
2022-11-23T17:41:20.411Z,11.73
2022-11-23T17:43:46.835Z,8.70
2022-11-23T17:46:19.165Z,7.97
2022-11-23T17:48:46.788Z,8.67
2022-11-23T17:51:13.695Z,8.70
2022-11-23T17:53:40.547Z,8.17
2022-11-23T17:56:15.406Z,7.33
2022-11-23T17:58:41.874Z,8.40
2022-11-23T18:01:13.198Z,8.13
2022-11-23T18:03:39.739Z,5.90
2022-11-23T18:06:06.582Z,8.67
2022-11-23T18:08:33.019Z,8.83
2022-11-23T18:10:59.776Z,8.63
2022-11-23T18:13:26.214Z,10.17
2022-11-23T18:15:52.867Z,7.60
2022-11-23T18:18:19.322Z,6.63
2022-11-23T18:20:45.754Z,6.13
2022-11-23T18:23:12.164Z,7.77
2022-11-23T18:25:38.547Z,6.57
2022-11-23T18:28:05.034Z,7.70
2022-11-23T18:30:31.629Z,7.33
2022-11-23T18:32:58.379Z,7.63
2022-11-23T18:35:24.798Z,7.23
2022-11-23T18:37:51.195Z,7.03
2022-11-23T18:40:17.624Z,6.23
2022-11-23T18:42:44.126Z,8.57
2022-11-23T18:45:10.553Z,7.37
2022-11-23T18:47:37.575Z,7.73
2022-11-23T18:50:06.698Z,11.43
2022-11-23T18:52:33.414Z,8.67
2022-11-23T18:54:59.845Z,19.00
2022-11-23T18:57:26.256Z,15.77
2022-11-23T19:00:00.212Z,18.93
2022-11-23T19:02:27.011Z,11.87
2022-11-23T19:04:53.417Z,10.97
2022-11-23T19:07:25.274Z,9.17
2022-11-23T19:09:53.457Z,8.27
2022-11-23T19:12:19.896Z,9.77
2022-11-23T19:14:49.607Z,8.70
2022-11-23T19:17:16.974Z,9.03
2022-11-23T19:19:43.383Z,10.40
2022-11-23T19:22:09.840Z,10.50
2022-11-23T19:24:36.292Z,11.27
2022-11-23T19:27:02.720Z,14.77
2022-11-23T19:29:29.214Z,18.07
2022-11-23T19:31:56.117Z,15.67
2022-11-23T19:34:22.635Z,16.23
2022-11-23T19:36:49.092Z,15.27
2022-11-23T19:39:15.555Z,13.07
2022-11-23T19:41:41.982Z,17.83
2022-11-23T19:44:09.263Z,17.37
2022-11-23T19:46:35.695Z,14.80
2022-11-23T19:49:02.202Z,20.10
2022-11-23T19:51:28.808Z,15.97
2022-11-23T19:53:57.586Z,21.37
2022-11-23T19:56:25.673Z,16.03
2022-11-23T19:58:53.716Z,9.67
2022-11-23T20:01:21.937Z,9.47
2022-11-23T20:03:53.636Z,8.47
2022-11-23T20:06:28.639Z,10.50
2022-11-23T20:08:57.020Z,9.73
2022-11-23T20:11:24.582Z,10.47
2022-11-23T20:13:51.002Z,8.10
2022-11-23T20:16:18.970Z,7.53
2022-11-23T20:18:46.700Z,11.77
2022-11-23T20:21:14.962Z,10.03
2022-11-23T20:23:42.313Z,10.87
2022-11-23T20:26:10.878Z,11.07
2022-11-23T20:28:37.407Z,8.30
2022-11-23T20:31:07.774Z,6.53
2022-11-23T20:33:34.226Z,8.53
2022-11-23T20:36:10.699Z,8.23
2022-11-23T20:38:38.677Z,8.23
2022-11-23T20:41:19.424Z,8.70
2022-11-23T20:43:47.696Z,12.23
2022-11-23T20:46:19.231Z,9.97
2022-11-23T20:48:58.676Z,13.10
2022-11-23T20:51:26.630Z,11.07
2022-11-23T20:53:53.481Z,11.30
2022-11-23T20:56:25.748Z,10.17
2022-11-23T20:58:55.347Z,10.07
2022-11-23T21:01:21.874Z,12.63
2022-11-23T21:03:54.040Z,9.53
2022-11-23T21:06:21.078Z,9.80
2022-11-23T21:08:48.914Z,11.57
2022-11-23T21:11:38.333Z,9.03
2022-11-23T21:14:06.821Z,9.57
2022-11-23T21:16:39.263Z,10.43
2022-11-23T21:19:09.796Z,8.60
2022-11-23T21:21:37.203Z,11.30
2022-11-23T21:24:04.885Z,11.83
2022-11-23T21:26:31.633Z,9.23
2022-11-23T21:28:58.281Z,7.70
2022-11-23T21:31:25.290Z,9.63
2022-11-23T21:33:53.909Z,9.33
2022-11-23T21:36:24.646Z,8.73
2022-11-23T21:38:51.237Z,13.00
2022-11-23T21:41:18.125Z,7.57
2022-11-23T21:43:51.357Z,8.67
2022-11-23T21:46:18.283Z,8.10
2022-11-23T21:48:44.765Z,8.93
2022-11-23T21:51:15.493Z,7.70
2022-11-23T21:53:42.044Z,10.17
2022-11-23T21:56:11.490Z,10.07
2022-11-23T21:58:37.910Z,8.97
2022-11-23T22:01:20.777Z,8.73
2022-11-23T22:03:52.824Z,8.43
2022-11-23T22:06:20.872Z,9.37
2022-11-23T22:08:49.648Z,9.43
2022-11-23T22:11:25.820Z,8.13
2022-11-23T22:14:02.600Z,7.30
2022-11-23T22:16:33.818Z,8.80
2022-11-23T22:19:00.940Z,8.87
2022-11-23T22:21:30.380Z,9.73
2022-11-23T22:23:58.382Z,9.97
2022-11-23T22:26:26.187Z,8.23
2022-11-23T22:28:52.693Z,8.53
2022-11-23T22:31:21.694Z,8.67
2022-11-23T22:33:49.216Z,10.43
2022-11-23T22:36:17.736Z,9.70
2022-11-23T22:38:44.668Z,9.87
2022-11-23T22:41:13.087Z,10.63
2022-11-23T22:43:39.583Z,8.60
2022-11-23T22:46:12.512Z,12.03
2022-11-23T22:48:40.020Z,8.63
2022-11-23T22:51:07.374Z,9.53
2022-11-23T22:53:33.974Z,8.57
2022-11-23T22:56:01.986Z,8.47
2022-11-23T22:58:29.640Z,8.70
2022-11-23T23:00:57.485Z,7.80
2022-11-23T23:03:24.348Z,9.93
2022-11-23T23:05:57.824Z,8.80
2022-11-23T23:08:25.269Z,8.10
2022-11-23T23:10:51.755Z,8.10
2022-11-23T23:13:18.893Z,10.27
2022-11-23T23:15:45.516Z,8.07
2022-11-23T23:18:13.638Z,6.87
2022-11-23T23:20:40.233Z,10.03
2022-11-23T23:23:06.756Z,9.23
2022-11-23T23:25:33.147Z,7.67
2022-11-23T23:27:59.633Z,7.70
2022-11-23T23:30:26.438Z,10.27
2022-11-23T23:32:58.157Z,9.47
2022-11-23T23:35:24.596Z,10.53
2022-11-23T23:37:51.565Z,7.23
2022-11-23T23:40:18.052Z,7.37
2022-11-23T23:42:44.471Z,8.93
2022-11-23T23:45:11.023Z,11.97
2022-11-23T23:47:37.849Z,9.00
2022-11-23T23:50:04.787Z,8.77
2022-11-23T23:52:31.313Z,7.40
2022-11-23T23:54:57.729Z,7.60
2022-11-23T23:57:24.166Z,10.30
2022-11-23T23:59:50.584Z,7.80
